Addison, Alabama
Current Conditions -  °F | °C
As of 7:55 AM on Thursday 23 Oct 2014 (Local Time) from KCMD Reporting Station
Clear Clear  
Wind Chill:   Ceiling: Unl
Heat Index:   Visibility: 7mi
Dew Point:   Wind: 3mph
Humidity: 99%   Direction: 40°NE
Pressure: 30.17"   Gusts: NA
Location:  34.2°N, 87.18°W
Report Text: KCMD 231255Z AUTO 04003KT 7SM CLR 04/03 A3017 RMK AO2 T00360034
Loading
Personal Weather Stations






























Interactive Weather Map
Tropical Storm Tracking
New forecast layout! Learn more

10-Day Weather Forecast

Advertisements
Track Severe Weather on mobile